sensor_id;sensor_type;location;lat;lon;timestamp;pressure;altitude;pressure_sealevel;temperature;humidity
71165;BME280;58859;55.132;-1.586;2023-11-22T00:01:03;102310.88;;;13.56;100.00
71165;BME280;58859;55.132;-1.586;2023-11-22T00:03:28;102294.81;;;14.12;100.00
71165;BME280;58859;55.132;-1.586;2023-11-22T00:05:54;102308.53;;;14.04;100.00
71165;BME280;58859;55.132;-1.586;2023-11-22T00:08:19;102311.06;;;14.15;100.00
71165;BME280;58859;55.132;-1.586;2023-11-22T00:10:45;102307.03;;;14.11;100.00
71165;BME280;58859;55.132;-1.586;2023-11-22T00:13:10;102309.16;;;14.17;100.00
71165;BME280;58859;55.132;-1.586;2023-11-22T00:15:36;102314.19;;;13.79;100.00
71165;BME280;58859;55.132;-1.586;2023-11-22T00:18:02;102302.22;;;14.96;100.00
71165;BME280;58859;55.132;-1.586;2023-11-22T00:20:31;102291.22;;;14.13;100.00
71165;BME280;58859;55.132;-1.586;2023-11-22T00:22:59;102275.94;;;14.38;100.00
71165;BME280;58859;55.132;-1.586;2023-11-22T00:25:24;102258.97;;;14.43;100.00
71165;BME280;58859;55.132;-1.586;2023-11-22T00:27:50;102252.34;;;13.99;100.00
71165;BME280;58859;55.132;-1.586;2023-11-22T00:30:15;102243.75;;;14.67;100.00
71165;BME280;58859;55.132;-1.586;2023-11-22T00:32:41;102229.06;;;13.96;100.00
71165;BME280;58859;55.132;-1.586;2023-11-22T00:35:07;102234.94;;;14.77;100.00
71165;BME280;58859;55.132;-1.586;2023-11-22T00:37:33;102226.72;;;14.42;100.00
71165;BME280;58859;55.132;-1.586;2023-11-22T00:40:00;102211.41;;;13.37;100.00
71165;BME280;58859;55.132;-1.586;2023-11-22T00:42:26;102204.34;;;13.79;100.00
71165;BME280;58859;55.132;-1.586;2023-11-22T00:44:52;102198.66;;;14.44;100.00
71165;BME280;58859;55.132;-1.586;2023-11-22T00:47:18;102193.81;;;14.39;100.00
71165;BME280;58859;55.132;-1.586;2023-11-22T00:49:44;102171.97;;;14.10;100.00
71165;BME280;58859;55.132;-1.586;2023-11-22T00:52:09;102183.63;;;13.66;100.00
71165;BME280;58859;55.132;-1.586;2023-11-22T00:54:35;102169.41;;;13.50;100.00
71165;BME280;58859;55.132;-1.586;2023-11-22T00:57:00;102177.13;;;13.91;100.00
71165;BME280;58859;55.132;-1.586;2023-11-22T00:59:25;102184.06;;;14.89;100.00
71165;BME280;58859;55.132;-1.586;2023-11-22T01:01:52;102180.16;;;14.36;100.00
71165;BME280;58859;55.132;-1.586;2023-11-22T01:04:17;102181.88;;;14.16;100.00
71165;BME280;58859;55.132;-1.586;2023-11-22T01:06:43;102164.31;;;15.14;100.00
71165;BME280;58859;55.132;-1.586;2023-11-22T01:09:08;102174.28;;;14.13;100.00
71165;BME280;58859;55.132;-1.586;2023-11-22T01:11:34;102178.75;;;13.82;100.00
71165;BME280;58859;55.132;-1.586;2023-11-22T01:14:00;102168.00;;;13.76;100.00
71165;BME280;58859;55.132;-1.586;2023-11-22T01:16:25;102170.69;;;14.92;100.00
71165;BME280;58859;55.132;-1.586;2023-11-22T01:18:51;102172.97;;;14.19;100.00
71165;BME280;58859;55.132;-1.586;2023-11-22T01:21:18;102164.63;;;13.34;100.00
71165;BME280;58859;55.132;-1.586;2023-11-22T01:23:44;102164.16;;;14.29;100.00
71165;BME280;58859;55.132;-1.586;2023-11-22T01:26:11;102155.50;;;14.67;100.00
71165;BME280;58859;55.132;-1.586;2023-11-22T01:28:36;102158.97;;;14.58;100.00
71165;BME280;58859;55.132;-1.586;2023-11-22T01:31:02;102150.16;;;14.69;100.00
71165;BME280;58859;55.132;-1.586;2023-11-22T01:33:28;102149.59;;;14.46;100.00
71165;BME280;58859;55.132;-1.586;2023-11-22T01:35:54;102135.81;;;14.34;100.00
71165;BME280;58859;55.132;-1.586;2023-11-22T01:38:19;102140.91;;;14.36;100.00
71165;BME280;58859;55.132;-1.586;2023-11-22T01:40:48;102140.94;;;15.49;100.00
71165;BME280;58859;55.132;-1.586;2023-11-22T01:43:14;102135.66;;;15.03;100.00
71165;BME280;58859;55.132;-1.586;2023-11-22T01:45:40;102136.19;;;15.07;100.00
71165;BME280;58859;55.132;-1.586;2023-11-22T01:48:06;102125.66;;;15.26;100.00
71165;BME280;58859;55.132;-1.586;2023-11-22T01:50:32;102116.22;;;14.29;100.00
71165;BME280;58859;55.132;-1.586;2023-11-22T01:52:58;102111.97;;;14.57;100.00
71165;BME280;58859;55.132;-1.586;2023-11-22T01:55:24;102103.53;;;15.38;100.00
71165;BME280;58859;55.132;-1.586;2023-11-22T01:57:50;102101.72;;;16.02;100.00
71165;BME280;58859;55.132;-1.586;2023-11-22T02:00:15;102099.25;;;15.74;100.00
71165;BME280;58859;55.132;-1.586;2023-11-22T02:02:41;102099.50;;;15.07;100.00
71165;BME280;58859;55.132;-1.586;2023-11-22T02:05:08;102098.34;;;14.44;100.00
71165;BME280;58859;55.132;-1.586;2023-11-22T02:07:33;102090.84;;;15.33;100.00
71165;BME280;58859;55.132;-1.586;2023-11-22T02:09:59;102093.16;;;15.46;100.00
71165;BME280;58859;55.132;-1.586;2023-11-22T02:12:24;102100.25;;;14.80;100.00
71165;BME280;58859;55.132;-1.586;2023-11-22T02:14:49;102103.09;;;14.96;100.00
71165;BME280;58859;55.132;-1.586;2023-11-22T02:17:16;102100.94;;;15.28;100.00
71165;BME280;58859;55.132;-1.586;2023-11-22T02:19:42;102092.06;;;15.48;100.00
71165;BME280;58859;55.132;-1.586;2023-11-22T02:22:08;102086.59;;;15.69;100.00
71165;BME280;58859;55.132;-1.586;2023-11-22T02:24:33;102108.53;;;15.68;100.00
71165;BME280;58859;55.132;-1.586;2023-11-22T02:26:59;102113.41;;;16.08;100.00
71165;BME280;58859;55.132;-1.586;2023-11-22T02:29:25;102110.34;;;15.95;100.00
71165;BME280;58859;55.132;-1.586;2023-11-22T02:31:50;102123.41;;;16.40;100.00
71165;BME280;58859;55.132;-1.586;2023-11-22T02:34:16;102110.50;;;16.11;100.00
71165;BME280;58859;55.132;-1.586;2023-11-22T02:36:44;102127.16;;;16.20;100.00
71165;BME280;58859;55.132;-1.586;2023-11-22T02:39:09;102117.66;;;15.91;100.00
71165;BME280;58859;55.132;-1.586;2023-11-22T02:41:36;102116.03;;;15.17;100.00
71165;BME280;58859;55.132;-1.586;2023-11-22T02:44:01;102116.63;;;14.82;100.00
71165;BME280;58859;55.132;-1.586;2023-11-22T02:46:27;102119.69;;;15.70;100.00
71165;BME280;58859;55.132;-1.586;2023-11-22T02:48:52;102103.38;;;14.93;100.00
71165;BME280;58859;55.132;-1.586;2023-11-22T02:51:19;102114.03;;;14.63;100.00
71165;BME280;58859;55.132;-1.586;2023-11-22T02:53:46;102107.66;;;14.94;100.00
71165;BME280;58859;55.132;-1.586;2023-11-22T02:56:14;102123.13;;;15.80;100.00
71165;BME280;58859;55.132;-1.586;2023-11-22T02:58:39;102132.09;;;14.47;100.00
71165;BME280;58859;55.132;-1.586;2023-11-22T03:01:04;102122.81;;;16.28;100.00
71165;BME280;58859;55.132;-1.586;2023-11-22T03:03:30;102131.78;;;15.53;100.00
71165;BME280;58859;55.132;-1.586;2023-11-22T03:05:55;102136.09;;;16.44;100.00
71165;BME280;58859;55.132;-1.586;2023-11-22T03:08:20;102110.91;;;16.06;100.00
71165;BME280;58859;55.132;-1.586;2023-11-22T03:10:46;102110.91;;;15.62;100.00
71165;BME280;58859;55.132;-1.586;2023-11-22T03:13:11;102102.31;;;14.86;100.00
71165;BME280;58859;55.132;-1.586;2023-11-22T03:15:37;102098.81;;;15.05;100.00
71165;BME280;58859;55.132;-1.586;2023-11-22T03:18:03;102100.53;;;14.67;100.00
71165;BME280;58859;55.132;-1.586;2023-11-22T03:20:31;102095.13;;;14.21;100.00
71165;BME280;58859;55.132;-1.586;2023-11-22T03:22:58;102090.91;;;14.58;100.00
71165;BME280;58859;55.132;-1.586;2023-11-22T03:25:23;102091.72;;;14.59;100.00
71165;BME280;58859;55.132;-1.586;2023-11-22T03:27:48;102080.13;;;14.80;100.00
71165;BME280;58859;55.132;-1.586;2023-11-22T03:30:14;102064.31;;;14.44;100.00
71165;BME280;58859;55.132;-1.586;2023-11-22T03:32:43;102064.09;;;15.30;100.00
71165;BME280;58859;55.132;-1.586;2023-11-22T03:35:10;102051.88;;;14.74;100.00
71165;BME280;58859;55.132;-1.586;2023-11-22T03:37:35;102057.81;;;14.09;100.00
71165;BME280;58859;55.132;-1.586;2023-11-22T03:40:01;102049.78;;;13.82;100.00
71165;BME280;58859;55.132;-1.586;2023-11-22T03:42:28;102045.84;;;13.48;100.00
71165;BME280;58859;55.132;-1.586;2023-11-22T03:44:53;102046.03;;;13.65;100.00
71165;BME280;58859;55.132;-1.586;2023-11-22T03:47:19;102045.00;;;13.07;100.00
71165;BME280;58859;55.132;-1.586;2023-11-22T03:49:44;102037.84;;;13.99;100.00
71165;BME280;58859;55.132;-1.586;2023-11-22T03:52:10;102027.03;;;13.14;100.00
71165;BME280;58859;55.132;-1.586;2023-11-22T03:54:36;102020.22;;;14.10;100.00
71165;BME280;58859;55.132;-1.586;2023-11-22T03:57:02;101991.69;;;14.55;100.00
71165;BME280;58859;55.132;-1.586;2023-11-22T03:59:28;102000.22;;;14.00;100.00
71165;BME280;58859;55.132;-1.586;2023-11-22T04:01:53;101991.66;;;15.02;100.00
71165;BME280;58859;55.132;-1.586;2023-11-22T04:04:19;101981.06;;;14.93;100.00
71165;BME280;58859;55.132;-1.586;2023-11-22T04:06:45;101989.16;;;14.73;100.00
71165;BME280;58859;55.132;-1.586;2023-11-22T04:09:10;101972.25;;;14.94;100.00
71165;BME280;58859;55.132;-1.586;2023-11-22T04:11:39;101969.25;;;14.53;100.00
71165;BME280;58859;55.132;-1.586;2023-11-22T04:14:04;101959.94;;;15.05;100.00
71165;BME280;58859;55.132;-1.586;2023-11-22T04:16:30;101945.63;;;15.44;100.00
71165;BME280;58859;55.132;-1.586;2023-11-22T04:18:55;101952.63;;;15.53;100.00
71165;BME280;58859;55.132;-1.586;2023-11-22T04:21:21;101957.31;;;15.05;100.00
71165;BME280;58859;55.132;-1.586;2023-11-22T04:23:46;101954.88;;;15.48;100.00
71165;BME280;58859;55.132;-1.586;2023-11-22T04:26:13;101963.34;;;15.15;100.00
71165;BME280;58859;55.132;-1.586;2023-11-22T04:28:39;101960.00;;;16.02;100.00
71165;BME280;58859;55.132;-1.586;2023-11-22T04:31:04;101971.59;;;15.20;100.00
71165;BME280;58859;55.132;-1.586;2023-11-22T04:33:29;101956.84;;;15.99;100.00
71165;BME280;58859;55.132;-1.586;2023-11-22T04:35:55;101957.53;;;15.21;100.00
71165;BME280;58859;55.132;-1.586;2023-11-22T04:38:21;101964.34;;;16.12;100.00
71165;BME280;58859;55.132;-1.586;2023-11-22T04:40:47;101957.91;;;15.88;100.00
71165;BME280;58859;55.132;-1.586;2023-11-22T04:43:13;101981.66;;;15.69;100.00
71165;BME280;58859;55.132;-1.586;2023-11-22T04:45:38;101980.59;;;15.62;100.00
71165;BME280;58859;55.132;-1.586;2023-11-22T04:48:04;101983.13;;;16.25;100.00
71165;BME280;58859;55.132;-1.586;2023-11-22T04:50:30;101970.13;;;15.62;100.00
71165;BME280;58859;55.132;-1.586;2023-11-22T04:52:55;101960.66;;;15.51;100.00
71165;BME280;58859;55.132;-1.586;2023-11-22T04:55:21;101959.44;;;15.46;100.00
71165;BME280;58859;55.132;-1.586;2023-11-22T04:57:48;101946.00;;;15.31;100.00
71165;BME280;58859;55.132;-1.586;2023-11-22T05:00:14;101928.28;;;15.78;100.00
71165;BME280;58859;55.132;-1.586;2023-11-22T05:02:39;101918.91;;;15.76;100.00
71165;BME280;58859;55.132;-1.586;2023-11-22T05:05:06;101914.38;;;15.60;100.00
71165;BME280;58859;55.132;-1.586;2023-11-22T05:07:31;101917.41;;;16.08;100.00
71165;BME280;58859;55.132;-1.586;2023-11-22T05:09:57;101918.38;;;15.90;100.00
71165;BME280;58859;55.132;-1.586;2023-11-22T05:12:22;101902.56;;;15.99;100.00
71165;BME280;58859;55.132;-1.586;2023-11-22T05:14:49;101897.78;;;15.95;100.00
71165;BME280;58859;55.132;-1.586;2023-11-22T05:17:14;101899.88;;;15.91;100.00
71165;BME280;58859;55.132;-1.586;2023-11-22T05:19:39;101906.88;;;15.65;100.00
71165;BME280;58859;55.132;-1.586;2023-11-22T05:22:05;101904.19;;;15.57;100.00
71165;BME280;58859;55.132;-1.586;2023-11-22T05:24:30;101905.19;;;15.82;100.00
71165;BME280;58859;55.132;-1.586;2023-11-22T05:26:56;101912.75;;;16.02;100.00
71165;BME280;58859;55.132;-1.586;2023-11-22T05:29:21;101922.38;;;15.76;100.00
71165;BME280;58859;55.132;-1.586;2023-11-22T05:31:47;101951.75;;;15.62;100.00
71165;BME280;58859;55.132;-1.586;2023-11-22T05:34:12;101955.09;;;15.10;100.00
71165;BME280;58859;55.132;-1.586;2023-11-22T05:36:38;101966.97;;;15.31;100.00
71165;BME280;58859;55.132;-1.586;2023-11-22T05:39:03;101964.50;;;15.57;100.00
71165;BME280;58859;55.132;-1.586;2023-11-22T05:41:29;101961.41;;;16.15;100.00
71165;BME280;58859;55.132;-1.586;2023-11-22T05:43:55;101930.94;;;16.22;100.00
71165;BME280;58859;55.132;-1.586;2023-11-22T05:46:21;101915.88;;;15.80;100.00
71165;BME280;58859;55.132;-1.586;2023-11-22T05:48:48;101923.50;;;15.11;100.00
71165;BME280;58859;55.132;-1.586;2023-11-22T05:51:15;101932.56;;;15.79;100.00
71165;BME280;58859;55.132;-1.586;2023-11-22T05:53:41;101905.91;;;15.21;100.00
71165;BME280;58859;55.132;-1.586;2023-11-22T05:56:06;101906.84;;;16.00;100.00
71165;BME280;58859;55.132;-1.586;2023-11-22T05:58:34;101909.59;;;15.99;100.00
71165;BME280;58859;55.132;-1.586;2023-11-22T06:00:59;101901.69;;;15.56;100.00
71165;BME280;58859;55.132;-1.586;2023-11-22T06:03:25;101924.66;;;15.44;100.00
71165;BME280;58859;55.132;-1.586;2023-11-22T06:05:50;101917.19;;;15.67;100.00
71165;BME280;58859;55.132;-1.586;2023-11-22T06:08:16;101916.22;;;16.03;100.00
71165;BME280;58859;55.132;-1.586;2023-11-22T06:10:42;101907.69;;;15.66;100.00
71165;BME280;58859;55.132;-1.586;2023-11-22T06:13:07;101903.81;;;15.52;100.00
71165;BME280;58859;55.132;-1.586;2023-11-22T06:15:34;101902.03;;;15.25;100.00
71165;BME280;58859;55.132;-1.586;2023-11-22T06:17:59;101925.63;;;15.25;100.00
71165;BME280;58859;55.132;-1.586;2023-11-22T06:20:24;101918.25;;;15.74;100.00
71165;BME280;58859;55.132;-1.586;2023-11-22T06:22:52;101909.44;;;15.75;100.00
71165;BME280;58859;55.132;-1.586;2023-11-22T06:25:17;101913.84;;;15.57;100.00
71165;BME280;58859;55.132;-1.586;2023-11-22T06:27:43;101920.81;;;15.66;100.00
71165;BME280;58859;55.132;-1.586;2023-11-22T06:30:08;101927.25;;;15.53;100.00
71165;BME280;58859;55.132;-1.586;2023-11-22T06:32:34;101913.97;;;15.73;100.00
71165;BME280;58859;55.132;-1.586;2023-11-22T06:35:00;101919.97;;;16.26;100.00
71165;BME280;58859;55.132;-1.586;2023-11-22T06:37:25;101913.03;;;16.17;100.00
71165;BME280;58859;55.132;-1.586;2023-11-22T06:39:51;101910.69;;;15.71;100.00
71165;BME280;58859;55.132;-1.586;2023-11-22T06:42:17;101902.63;;;15.90;100.00
71165;BME280;58859;55.132;-1.586;2023-11-22T06:44:42;101896.50;;;15.46;100.00
71165;BME280;58859;55.132;-1.586;2023-11-22T06:47:08;101884.81;;;15.76;100.00
71165;BME280;58859;55.132;-1.586;2023-11-22T06:49:33;101892.47;;;16.38;100.00
71165;BME280;58859;55.132;-1.586;2023-11-22T06:51:59;101896.31;;;15.75;100.00
71165;BME280;58859;55.132;-1.586;2023-11-22T06:54:24;101898.16;;;15.47;100.00
71165;BME280;58859;55.132;-1.586;2023-11-22T06:56:50;101885.69;;;16.02;100.00
71165;BME280;58859;55.132;-1.586;2023-11-22T06:59:16;101889.88;;;15.69;100.00
71165;BME280;58859;55.132;-1.586;2023-11-22T07:01:42;101891.97;;;15.66;100.00
71165;BME280;58859;55.132;-1.586;2023-11-22T07:04:07;101899.16;;;16.07;100.00
71165;BME280;58859;55.132;-1.586;2023-11-22T07:06:32;101880.47;;;15.31;100.00
71165;BME280;58859;55.132;-1.586;2023-11-22T07:08:58;101862.75;;;15.61;100.00
71165;BME280;58859;55.132;-1.586;2023-11-22T07:11:24;101864.69;;;15.59;100.00
71165;BME280;58859;55.132;-1.586;2023-11-22T07:13:50;101828.47;;;16.05;100.00
71165;BME280;58859;55.132;-1.586;2023-11-22T07:16:16;101844.53;;;16.62;100.00
71165;BME280;58859;55.132;-1.586;2023-11-22T07:18:43;101843.38;;;15.44;100.00
71165;BME280;58859;55.132;-1.586;2023-11-22T07:21:09;101832.41;;;15.84;100.00
71165;BME280;58859;55.132;-1.586;2023-11-22T07:23:34;101836.09;;;15.91;100.00
71165;BME280;58859;55.132;-1.586;2023-11-22T07:26:00;101832.69;;;16.32;100.00
71165;BME280;58859;55.132;-1.586;2023-11-22T07:28:26;101826.34;;;16.77;100.00
71165;BME280;58859;55.132;-1.586;2023-11-22T07:30:51;101813.44;;;15.90;100.00
71165;BME280;58859;55.132;-1.586;2023-11-22T07:33:17;101812.69;;;15.97;100.00
71165;BME280;58859;55.132;-1.586;2023-11-22T07:35:43;101852.75;;;16.07;100.00
71165;BME280;58859;55.132;-1.586;2023-11-22T07:38:08;101867.09;;;15.95;100.00
71165;BME280;58859;55.132;-1.586;2023-11-22T07:40:35;101864.41;;;16.64;100.00
71165;BME280;58859;55.132;-1.586;2023-11-22T07:43:02;101857.59;;;15.94;100.00
71165;BME280;58859;55.132;-1.586;2023-11-22T07:45:30;101863.06;;;16.35;100.00
71165;BME280;58859;55.132;-1.586;2023-11-22T07:47:57;101843.88;;;16.34;100.00
71165;BME280;58859;55.132;-1.586;2023-11-22T07:50:24;101866.16;;;16.30;100.00
71165;BME280;58859;55.132;-1.586;2023-11-22T07:52:50;101867.31;;;16.28;100.00
71165;BME280;58859;55.132;-1.586;2023-11-22T07:55:16;101858.16;;;16.32;100.00
71165;BME280;58859;55.132;-1.586;2023-11-22T07:57:46;101850.50;;;16.21;100.00
71165;BME280;58859;55.132;-1.586;2023-11-22T08:00:12;101844.34;;;15.78;100.00
71165;BME280;58859;55.132;-1.586;2023-11-22T08:02:38;101851.06;;;16.32;100.00
71165;BME280;58859;55.132;-1.586;2023-11-22T08:05:08;101817.44;;;15.76;100.00
71165;BME280;58859;55.132;-1.586;2023-11-22T08:07:35;101821.34;;;16.24;100.00
71165;BME280;58859;55.132;-1.586;2023-11-22T08:10:00;101814.03;;;15.84;100.00
71165;BME280;58859;55.132;-1.586;2023-11-22T08:12:35;101830.63;;;16.10;100.00
71165;BME280;58859;55.132;-1.586;2023-11-22T08:15:01;101814.94;;;16.26;100.00
71165;BME280;58859;55.132;-1.586;2023-11-22T08:17:29;101807.31;;;16.07;100.00
71165;BME280;58859;55.132;-1.586;2023-11-22T08:19:54;101810.09;;;16.05;100.00
71165;BME280;58859;55.132;-1.586;2023-11-22T08:22:20;101800.13;;;16.51;100.00
71165;BME280;58859;55.132;-1.586;2023-11-22T08:24:46;101773.09;;;15.91;100.00
71165;BME280;58859;55.132;-1.586;2023-11-22T08:27:12;101782.69;;;15.74;100.00
71165;BME280;58859;55.132;-1.586;2023-11-22T08:29:40;101768.19;;;16.22;100.00
71165;BME280;58859;55.132;-1.586;2023-11-22T08:32:06;101770.00;;;15.70;100.00
71165;BME280;58859;55.132;-1.586;2023-11-22T08:34:32;101775.00;;;15.81;100.00
71165;BME280;58859;55.132;-1.586;2023-11-22T08:36:57;101770.47;;;16.17;100.00
71165;BME280;58859;55.132;-1.586;2023-11-22T08:39:24;101776.91;;;15.96;100.00
71165;BME280;58859;55.132;-1.586;2023-11-22T08:41:49;101773.13;;;16.33;100.00
71165;BME280;58859;55.132;-1.586;2023-11-22T08:44:15;101781.03;;;15.99;100.00
71165;BME280;58859;55.132;-1.586;2023-11-22T08:46:41;101786.34;;;16.15;100.00
71165;BME280;58859;55.132;-1.586;2023-11-22T08:49:06;101786.59;;;15.52;100.00
71165;BME280;58859;55.132;-1.586;2023-11-22T08:51:31;101780.16;;;15.65;100.00
71165;BME280;58859;55.132;-1.586;2023-11-22T08:53:58;101769.81;;;15.89;100.00
71165;BME280;58859;55.132;-1.586;2023-11-22T08:56:24;101785.59;;;16.31;100.00
71165;BME280;58859;55.132;-1.586;2023-11-22T08:58:49;101781.91;;;15.82;100.00
71165;BME280;58859;55.132;-1.586;2023-11-22T09:01:15;101776.00;;;16.47;100.00
71165;BME280;58859;55.132;-1.586;2023-11-22T09:03:40;101760.59;;;16.19;100.00
71165;BME280;58859;55.132;-1.586;2023-11-22T09:06:06;101763.28;;;15.93;100.00
71165;BME280;58859;55.132;-1.586;2023-11-22T09:08:32;101736.72;;;15.96;100.00
71165;BME280;58859;55.132;-1.586;2023-11-22T09:10:58;101727.06;;;15.96;100.00
71165;BME280;58859;55.132;-1.586;2023-11-22T09:13:23;101751.41;;;16.15;100.00
71165;BME280;58859;55.132;-1.586;2023-11-22T09:15:50;101750.94;;;15.85;100.00
71165;BME280;58859;55.132;-1.586;2023-11-22T09:18:15;101722.97;;;16.02;100.00
71165;BME280;58859;55.132;-1.586;2023-11-22T09:20:42;101765.06;;;16.26;100.00
71165;BME280;58859;55.132;-1.586;2023-11-22T09:23:10;101789.28;;;16.12;100.00
71165;BME280;58859;55.132;-1.586;2023-11-22T09:25:36;101774.88;;;16.16;100.00
71165;BME280;58859;55.132;-1.586;2023-11-22T09:28:01;101769.47;;;16.18;100.00
71165;BME280;58859;55.132;-1.586;2023-11-22T09:30:28;101767.91;;;16.41;100.00
71165;BME280;58859;55.132;-1.586;2023-11-22T09:33:09;101780.97;;;16.25;100.00
71165;BME280;58859;55.132;-1.586;2023-11-22T09:35:36;101779.38;;;16.32;100.00
71165;BME280;58859;55.132;-1.586;2023-11-22T09:38:04;101747.34;;;16.78;100.00
71165;BME280;58859;55.132;-1.586;2023-11-22T09:40:34;101743.25;;;16.26;100.00
71165;BME280;58859;55.132;-1.586;2023-11-22T09:43:01;101744.44;;;16.39;100.00
71165;BME280;58859;55.132;-1.586;2023-11-22T09:45:28;101724.31;;;16.06;100.00
71165;BME280;58859;55.132;-1.586;2023-11-22T09:47:57;101744.78;;;16.36;100.00
71165;BME280;58859;55.132;-1.586;2023-11-22T09:50:40;101718.50;;;16.28;100.00
71165;BME280;58859;55.132;-1.586;2023-11-22T09:53:22;101703.88;;;16.26;100.00
71165;BME280;58859;55.132;-1.586;2023-11-22T09:55:48;101715.88;;;16.36;100.00
71165;BME280;58859;55.132;-1.586;2023-11-22T09:58:14;101718.44;;;16.62;100.00
71165;BME280;58859;55.132;-1.586;2023-11-22T10:00:41;101713.84;;;16.72;100.00
71165;BME280;58859;55.132;-1.586;2023-11-22T10:03:07;101727.47;;;16.59;100.00
71165;BME280;58859;55.132;-1.586;2023-11-22T10:05:34;101731.59;;;16.20;100.00
71165;BME280;58859;55.132;-1.586;2023-11-22T10:08:00;101714.88;;;15.62;100.00
71165;BME280;58859;55.132;-1.586;2023-11-22T10:10:26;101709.94;;;16.26;100.00
71165;BME280;58859;55.132;-1.586;2023-11-22T10:12:57;101706.41;;;16.51;100.00
71165;BME280;58859;55.132;-1.586;2023-11-22T10:15:23;101686.56;;;15.99;100.00
71165;BME280;58859;55.132;-1.586;2023-11-22T10:17:56;101703.00;;;16.59;100.00
71165;BME280;58859;55.132;-1.586;2023-11-22T10:20:25;101702.78;;;16.44;100.00
71165;BME280;58859;55.132;-1.586;2023-11-22T10:22:53;101685.19;;;16.29;100.00
71165;BME280;58859;55.132;-1.586;2023-11-22T10:25:19;101682.72;;;16.27;100.00
71165;BME280;58859;55.132;-1.586;2023-11-22T10:27:45;101701.97;;;16.52;100.00
71165;BME280;58859;55.132;-1.586;2023-11-22T10:30:12;101702.63;;;16.46;100.00
71165;BME280;58859;55.132;-1.586;2023-11-22T10:32:37;101707.81;;;16.80;100.00
71165;BME280;58859;55.132;-1.586;2023-11-22T10:35:06;101703.50;;;16.54;100.00
71165;BME280;58859;55.132;-1.586;2023-11-22T10:37:33;101692.03;;;16.96;100.00
71165;BME280;58859;55.132;-1.586;2023-11-22T10:39:59;101688.16;;;16.34;100.00
71165;BME280;58859;55.132;-1.586;2023-11-22T10:42:25;101687.19;;;16.43;100.00
71165;BME280;58859;55.132;-1.586;2023-11-22T10:44:55;101686.09;;;16.78;100.00
71165;BME280;58859;55.132;-1.586;2023-11-22T10:47:22;101678.94;;;16.30;100.00
71165;BME280;58859;55.132;-1.586;2023-11-22T10:49:48;101670.63;;;16.50;100.00
71165;BME280;58859;55.132;-1.586;2023-11-22T10:52:13;101680.31;;;16.50;100.00
71165;BME280;58859;55.132;-1.586;2023-11-22T10:54:46;101681.63;;;16.46;100.00
71165;BME280;58859;55.132;-1.586;2023-11-22T10:57:16;101688.09;;;16.76;100.00
71165;BME280;58859;55.132;-1.586;2023-11-22T10:59:51;101687.56;;;16.72;100.00
71165;BME280;58859;55.132;-1.586;2023-11-22T11:02:21;101689.06;;;17.15;100.00
71165;BME280;58859;55.132;-1.586;2023-11-22T11:04:52;101676.75;;;16.83;100.00
71165;BME280;58859;55.132;-1.586;2023-11-22T11:07:21;101674.09;;;17.23;100.00
71165;BME280;58859;55.132;-1.586;2023-11-22T11:09:49;101672.50;;;16.74;100.00
71165;BME280;58859;55.132;-1.586;2023-11-22T11:12:17;101665.03;;;17.58;100.00
71165;BME280;58859;55.132;-1.586;2023-11-22T11:14:43;101654.72;;;17.16;100.00
71165;BME280;58859;55.132;-1.586;2023-11-22T11:17:12;101670.66;;;17.31;100.00
71165;BME280;58859;55.132;-1.586;2023-11-22T11:19:40;101658.13;;;16.52;100.00
71165;BME280;58859;55.132;-1.586;2023-11-22T11:22:08;101677.91;;;17.05;100.00
71165;BME280;58859;55.132;-1.586;2023-11-22T11:24:41;101672.50;;;16.82;100.00
71165;BME280;58859;55.132;-1.586;2023-11-22T11:27:12;101668.22;;;16.89;100.00
71165;BME280;58859;55.132;-1.586;2023-11-22T11:29:38;101658.53;;;16.65;100.00
71165;BME280;58859;55.132;-1.586;2023-11-22T11:32:15;101653.28;;;16.74;100.00
71165;BME280;58859;55.132;-1.586;2023-11-22T11:34:50;101662.91;;;17.30;100.00
71165;BME280;58859;55.132;-1.586;2023-11-22T11:37:18;101662.28;;;17.03;100.00
71165;BME280;58859;55.132;-1.586;2023-11-22T11:39:45;101665.19;;;17.41;100.00
71165;BME280;58859;55.132;-1.586;2023-11-22T11:42:11;101654.59;;;17.02;100.00
71165;BME280;58859;55.132;-1.586;2023-11-22T11:44:51;101657.06;;;16.79;100.00
71165;BME280;58859;55.132;-1.586;2023-11-22T11:47:18;101643.22;;;17.09;100.00
71165;BME280;58859;55.132;-1.586;2023-11-22T11:49:43;101648.16;;;16.72;100.00
71165;BME280;58859;55.132;-1.586;2023-11-22T11:52:09;101637.69;;;16.88;100.00
71165;BME280;58859;55.132;-1.586;2023-11-22T11:54:34;101651.63;;;17.05;100.00
71165;BME280;58859;55.132;-1.586;2023-11-22T11:57:00;101656.16;;;17.35;100.00
71165;BME280;58859;55.132;-1.586;2023-11-22T11:59:26;101660.81;;;17.25;100.00
71165;BME280;58859;55.132;-1.586;2023-11-22T12:01:55;101658.81;;;17.27;100.00
71165;BME280;58859;55.132;-1.586;2023-11-22T12:04:24;101648.78;;;17.39;100.00
71165;BME280;58859;55.132;-1.586;2023-11-22T12:06:49;101656.13;;;17.51;100.00
71165;BME280;58859;55.132;-1.586;2023-11-22T12:09:24;101648.13;;;17.29;100.00
71165;BME280;58859;55.132;-1.586;2023-11-22T12:11:56;101663.44;;;17.25;100.00
71165;BME280;58859;55.132;-1.586;2023-11-22T12:14:26;101657.00;;;17.28;100.00
71165;BME280;58859;55.132;-1.586;2023-11-22T12:16:52;101648.72;;;17.63;100.00
71165;BME280;58859;55.132;-1.586;2023-11-22T12:19:23;101658.69;;;16.96;100.00
71165;BME280;58859;55.132;-1.586;2023-11-22T12:21:49;101658.50;;;17.06;100.00
71165;BME280;58859;55.132;-1.586;2023-11-22T12:24:15;101671.97;;;17.27;100.00
71165;BME280;58859;55.132;-1.586;2023-11-22T12:26:45;101672.47;;;17.31;100.00